sensor_id;sensor_type;location;lat;lon;timestamp;pressure;altitude;pressure_sealevel;temperature;humidity
22550;BME280;11441;57.164;-2.120;2023-03-13T00:01:24;97776.97;;;6.47;100.00
22550;BME280;11441;57.164;-2.120;2023-03-13T00:03:51;97769.16;;;6.49;100.00
22550;BME280;11441;57.164;-2.120;2023-03-13T00:06:29;97765.97;;;6.57;100.00
22550;BME280;11441;57.164;-2.120;2023-03-13T00:08:58;97767.19;;;6.49;100.00
22550;BME280;11441;57.164;-2.120;2023-03-13T00:11:26;97763.38;;;6.29;100.00
22550;BME280;11441;57.164;-2.120;2023-03-13T00:14:11;97741.16;;;6.23;100.00
22550;BME280;11441;57.164;-2.120;2023-03-13T00:16:38;97732.56;;;6.25;100.00
22550;BME280;11441;57.164;-2.120;2023-03-13T00:19:07;97728.22;;;6.34;100.00
22550;BME280;11441;57.164;-2.120;2023-03-13T00:21:34;97716.13;;;6.32;100.00
22550;BME280;11441;57.164;-2.120;2023-03-13T00:24:03;97718.78;;;6.46;100.00
22550;BME280;11441;57.164;-2.120;2023-03-13T00:26:30;97710.97;;;6.48;100.00
22550;BME280;11441;57.164;-2.120;2023-03-13T00:28:57;97703.47;;;6.56;100.00
22550;BME280;11441;57.164;-2.120;2023-03-13T00:31:42;97690.63;;;6.49;100.00
22550;BME280;11441;57.164;-2.120;2023-03-13T00:34:09;97688.72;;;6.42;100.00
22550;BME280;11441;57.164;-2.120;2023-03-13T00:36:36;97686.38;;;6.45;100.00
22550;BME280;11441;57.164;-2.120;2023-03-13T00:39:04;97689.13;;;6.45;100.00
22550;BME280;11441;57.164;-2.120;2023-03-13T00:41:34;97694.66;;;6.27;100.00
22550;BME280;11441;57.164;-2.120;2023-03-13T00:44:01;97681.75;;;6.34;100.00
22550;BME280;11441;57.164;-2.120;2023-03-13T00:46:29;97665.25;;;6.49;100.00
22550;BME280;11441;57.164;-2.120;2023-03-13T00:48:56;97653.97;;;6.43;100.00
22550;BME280;11441;57.164;-2.120;2023-03-13T00:51:24;97658.94;;;6.59;100.00
22550;BME280;11441;57.164;-2.120;2023-03-13T00:53:56;97653.81;;;6.65;100.00
22550;BME280;11441;57.164;-2.120;2023-03-13T00:56:26;97667.13;;;6.59;100.00
22550;BME280;11441;57.164;-2.120;2023-03-13T00:59:13;97671.06;;;6.54;100.00
22550;BME280;11441;57.164;-2.120;2023-03-13T01:01:39;97666.41;;;6.48;100.00
22550;BME280;11441;57.164;-2.120;2023-03-13T01:04:24;97663.75;;;6.40;100.00
22550;BME280;11441;57.164;-2.120;2023-03-13T01:06:50;97660.59;;;6.46;100.00
22550;BME280;11441;57.164;-2.120;2023-03-13T01:09:36;97668.38;;;6.47;100.00
22550;BME280;11441;57.164;-2.120;2023-03-13T01:12:03;97655.47;;;6.48;100.00
22550;BME280;11441;57.164;-2.120;2023-03-13T01:14:30;97636.72;;;6.53;100.00
22550;BME280;11441;57.164;-2.120;2023-03-13T01:16:56;97637.16;;;6.48;100.00
22550;BME280;11441;57.164;-2.120;2023-03-13T01:19:23;97617.63;;;6.46;100.00
22550;BME280;11441;57.164;-2.120;2023-03-13T01:21:50;97613.72;;;6.44;100.00
22550;BME280;11441;57.164;-2.120;2023-03-13T01:24:16;97607.88;;;6.45;100.00
22550;BME280;11441;57.164;-2.120;2023-03-13T01:26:46;97596.66;;;6.29;100.00
22550;BME280;11441;57.164;-2.120;2023-03-13T01:29:14;97582.25;;;6.25;100.00
22550;BME280;11441;57.164;-2.120;2023-03-13T01:31:41;97579.06;;;6.33;100.00
22550;BME280;11441;57.164;-2.120;2023-03-13T01:34:09;97579.03;;;6.37;100.00
22550;BME280;11441;57.164;-2.120;2023-03-13T01:36:36;97572.75;;;6.40;100.00
22550;BME280;11441;57.164;-2.120;2023-03-13T01:39:04;97568.00;;;6.48;100.00
22550;BME280;11441;57.164;-2.120;2023-03-13T01:41:31;97555.22;;;6.34;100.00
22550;BME280;11441;57.164;-2.120;2023-03-13T01:43:58;97549.75;;;6.34;100.00
22550;BME280;11441;57.164;-2.120;2023-03-13T01:46:31;97536.94;;;6.27;100.00
22550;BME280;11441;57.164;-2.120;2023-03-13T01:49:07;97533.53;;;6.12;100.00
22550;BME280;11441;57.164;-2.120;2023-03-13T01:51:49;97511.13;;;5.76;100.00
22550;BME280;11441;57.164;-2.120;2023-03-13T01:54:25;97516.31;;;5.56;100.00
22550;BME280;11441;57.164;-2.120;2023-03-13T01:59:48;97491.78;;;5.52;100.00
22550;BME280;11441;57.164;-2.120;2023-03-13T02:02:16;97485.50;;;5.52;100.00
22550;BME280;11441;57.164;-2.120;2023-03-13T02:04:51;97474.16;;;5.57;100.00
22550;BME280;11441;57.164;-2.120;2023-03-13T02:07:30;97470.31;;;5.51;100.00
22550;BME280;11441;57.164;-2.120;2023-03-13T02:10:00;97456.28;;;5.48;100.00
22550;BME280;11441;57.164;-2.120;2023-03-13T02:12:33;97452.84;;;5.37;100.00
22550;BME280;11441;57.164;-2.120;2023-03-13T02:15:04;97440.34;;;5.43;100.00
22550;BME280;11441;57.164;-2.120;2023-03-13T02:17:33;97433.78;;;5.30;100.00
22550;BME280;11441;57.164;-2.120;2023-03-13T02:20:01;97433.00;;;5.33;100.00
22550;BME280;11441;57.164;-2.120;2023-03-13T02:28:28;97402.66;;;5.17;100.00
22550;BME280;11441;57.164;-2.120;2023-03-13T02:31:00;97391.38;;;5.15;100.00
22550;BME280;11441;57.164;-2.120;2023-03-13T02:33:31;97383.63;;;5.09;100.00
22550;BME280;11441;57.164;-2.120;2023-03-13T02:36:02;97390.25;;;5.08;100.00
22550;BME280;11441;57.164;-2.120;2023-03-13T02:38:52;97371.56;;;5.07;100.00
22550;BME280;11441;57.164;-2.120;2023-03-13T02:41:24;97350.53;;;5.04;100.00
22550;BME280;11441;57.164;-2.120;2023-03-13T02:43:53;97344.28;;;5.07;100.00
22550;BME280;11441;57.164;-2.120;2023-03-13T02:46:20;97332.16;;;5.12;100.00
22550;BME280;11441;57.164;-2.120;2023-03-13T02:48:53;97335.66;;;5.16;100.00
22550;BME280;11441;57.164;-2.120;2023-03-13T02:51:31;97321.50;;;5.32;100.00
22550;BME280;11441;57.164;-2.120;2023-03-13T02:54:04;97319.91;;;5.34;100.00
22550;BME280;11441;57.164;-2.120;2023-03-13T02:56:55;97301.16;;;5.40;100.00
22550;BME280;11441;57.164;-2.120;2023-03-13T02:59:22;97304.25;;;5.45;100.00
22550;BME280;11441;57.164;-2.120;2023-03-13T03:01:49;97296.50;;;5.40;100.00
22550;BME280;11441;57.164;-2.120;2023-03-13T03:04:22;97283.59;;;5.41;100.00
22550;BME280;11441;57.164;-2.120;2023-03-13T03:06:54;97277.38;;;5.40;100.00
22550;BME280;11441;57.164;-2.120;2023-03-13T03:09:21;97280.59;;;5.28;100.00
22550;BME280;11441;57.164;-2.120;2023-03-13T03:11:52;97266.13;;;5.35;100.00
22550;BME280;11441;57.164;-2.120;2023-03-13T03:14:19;97258.06;;;5.17;100.00
22550;BME280;11441;57.164;-2.120;2023-03-13T03:16:47;97259.25;;;5.19;100.00
22550;BME280;11441;57.164;-2.120;2023-03-13T03:19:14;97242.81;;;5.26;100.00
22550;BME280;11441;57.164;-2.120;2023-03-13T03:21:40;97233.75;;;5.37;100.00
22550;BME280;11441;57.164;-2.120;2023-03-13T03:24:26;97232.28;;;5.25;100.00
22550;BME280;11441;57.164;-2.120;2023-03-13T03:27:11;97229.69;;;5.10;100.00
22550;BME280;11441;57.164;-2.120;2023-03-13T03:29:45;97208.47;;;5.29;100.00
22550;BME280;11441;57.164;-2.120;2023-03-13T03:32:11;97204.59;;;5.26;100.00
22550;BME280;11441;57.164;-2.120;2023-03-13T03:34:39;97198.81;;;5.21;100.00
22550;BME280;11441;57.164;-2.120;2023-03-13T03:37:24;97184.66;;;5.33;100.00
22550;BME280;11441;57.164;-2.120;2023-03-13T03:39:51;97174.16;;;5.32;100.00
22550;BME280;11441;57.164;-2.120;2023-03-13T03:42:18;97151.03;;;5.43;100.00
22550;BME280;11441;57.164;-2.120;2023-03-13T03:44:45;97128.38;;;5.46;100.00
22550;BME280;11441;57.164;-2.120;2023-03-13T03:47:29;97127.63;;;5.42;100.00
22550;BME280;11441;57.164;-2.120;2023-03-13T03:49:57;97112.00;;;5.46;100.00
22550;BME280;11441;57.164;-2.120;2023-03-13T03:52:24;97111.53;;;5.52;100.00
22550;BME280;11441;57.164;-2.120;2023-03-13T03:54:51;97106.38;;;5.61;100.00
22550;BME280;11441;57.164;-2.120;2023-03-13T03:57:18;97096.63;;;5.60;100.00
22550;BME280;11441;57.164;-2.120;2023-03-13T03:59:45;97091.78;;;5.71;100.00
22550;BME280;11441;57.164;-2.120;2023-03-13T04:02:12;97089.75;;;5.79;100.00
22550;BME280;11441;57.164;-2.120;2023-03-13T04:04:40;97083.44;;;5.85;100.00
22550;BME280;11441;57.164;-2.120;2023-03-13T04:07:10;97090.06;;;5.84;100.00
22550;BME280;11441;57.164;-2.120;2023-03-13T04:09:38;97072.09;;;5.87;100.00
22550;BME280;11441;57.164;-2.120;2023-03-13T04:12:07;97055.66;;;5.91;100.00
22550;BME280;11441;57.164;-2.120;2023-03-13T04:14:39;97032.94;;;5.70;100.00
22550;BME280;11441;57.164;-2.120;2023-03-13T04:17:09;97018.19;;;5.64;100.00
22550;BME280;11441;57.164;-2.120;2023-03-13T04:19:37;97015.16;;;5.58;100.00
22550;BME280;11441;57.164;-2.120;2023-03-13T04:22:04;97001.44;;;5.62;100.00
22550;BME280;11441;57.164;-2.120;2023-03-13T04:24:31;97000.28;;;5.63;100.00
22550;BME280;11441;57.164;-2.120;2023-03-13T04:27:16;96995.16;;;5.65;100.00
22550;BME280;11441;57.164;-2.120;2023-03-13T04:30:03;96983.44;;;5.68;100.00
22550;BME280;11441;57.164;-2.120;2023-03-13T04:32:51;96967.16;;;5.61;100.00
22550;BME280;11441;57.164;-2.120;2023-03-13T04:35:29;96953.41;;;5.68;100.00
22550;BME280;11441;57.164;-2.120;2023-03-13T04:38:33;96934.59;;;5.74;100.00
22550;BME280;11441;57.164;-2.120;2023-03-13T04:41:12;96923.59;;;5.77;100.00
22550;BME280;11441;57.164;-2.120;2023-03-13T04:44:12;96918.50;;;5.79;100.00
22550;BME280;11441;57.164;-2.120;2023-03-13T04:46:53;96916.84;;;5.85;100.00
22550;BME280;11441;57.164;-2.120;2023-03-13T04:49:46;96899.41;;;6.03;100.00
22550;BME280;11441;57.164;-2.120;2023-03-13T04:52:19;96886.53;;;6.03;100.00
22550;BME280;11441;57.164;-2.120;2023-03-13T04:55:09;96888.00;;;6.08;100.00
22550;BME280;11441;57.164;-2.120;2023-03-13T04:57:54;96878.75;;;6.02;100.00
22550;BME280;11441;57.164;-2.120;2023-03-13T05:00:57;96869.78;;;6.01;100.00
22550;BME280;11441;57.164;-2.120;2023-03-13T05:03:42;96849.41;;;6.06;100.00
22550;BME280;11441;57.164;-2.120;2023-03-13T05:06:16;96831.97;;;6.00;100.00
22550;BME280;11441;57.164;-2.120;2023-03-13T05:09:15;96824.31;;;6.11;100.00
22550;BME280;11441;57.164;-2.120;2023-03-13T05:11:56;96818.09;;;6.11;100.00
22550;BME280;11441;57.164;-2.120;2023-03-13T05:14:42;96808.88;;;6.04;100.00
22550;BME280;11441;57.164;-2.120;2023-03-13T05:17:27;96808.78;;;6.08;100.00
22550;BME280;11441;57.164;-2.120;2023-03-13T05:20:20;96807.09;;;6.14;100.00
22550;BME280;11441;57.164;-2.120;2023-03-13T05:23:20;96802.78;;;6.17;100.00
22550;BME280;11441;57.164;-2.120;2023-03-13T05:26:05;96808.50;;;6.22;100.00
22550;BME280;11441;57.164;-2.120;2023-03-13T05:28:55;96800.81;;;6.17;100.00
22550;BME280;11441;57.164;-2.120;2023-03-13T05:32:00;96801.22;;;6.16;100.00
22550;BME280;11441;57.164;-2.120;2023-03-13T05:34:47;96782.09;;;6.16;100.00
22550;BME280;11441;57.164;-2.120;2023-03-13T05:37:23;96758.06;;;6.07;100.00
22550;BME280;11441;57.164;-2.120;2023-03-13T05:40:08;96759.97;;;6.10;100.00
22550;BME280;11441;57.164;-2.120;2023-03-13T05:43:10;96764.19;;;6.15;100.00
22550;BME280;11441;57.164;-2.120;2023-03-13T05:46:03;96764.44;;;6.20;100.00
22550;BME280;11441;57.164;-2.120;2023-03-13T05:48:52;96767.81;;;6.08;100.00
22550;BME280;11441;57.164;-2.120;2023-03-13T05:51:41;96781.97;;;6.03;100.00
22550;BME280;11441;57.164;-2.120;2023-03-13T05:54:26;96771.31;;;6.09;100.00
22550;BME280;11441;57.164;-2.120;2023-03-13T05:57:12;96763.38;;;5.94;100.00
22550;BME280;11441;57.164;-2.120;2023-03-13T05:59:57;96744.47;;;5.83;100.00
22550;BME280;11441;57.164;-2.120;2023-03-13T06:02:49;96729.59;;;5.64;100.00
22550;BME280;11441;57.164;-2.120;2023-03-13T06:05:22;96734.84;;;5.75;100.00
22550;BME280;11441;57.164;-2.120;2023-03-13T06:07:49;96740.38;;;5.72;100.00
22550;BME280;11441;57.164;-2.120;2023-03-13T06:10:16;96756.34;;;5.73;100.00
22550;BME280;11441;57.164;-2.120;2023-03-13T06:12:43;96765.38;;;5.70;100.00
22550;BME280;11441;57.164;-2.120;2023-03-13T06:15:12;96763.19;;;5.61;100.00
22550;BME280;11441;57.164;-2.120;2023-03-13T06:17:57;96750.22;;;5.65;100.00
22550;BME280;11441;57.164;-2.120;2023-03-13T06:20:24;96721.66;;;5.50;100.00
22550;BME280;11441;57.164;-2.120;2023-03-13T06:22:50;96707.94;;;5.54;100.00
22550;BME280;11441;57.164;-2.120;2023-03-13T06:25:18;96681.19;;;5.45;100.00
22550;BME280;11441;57.164;-2.120;2023-03-13T06:27:44;96613.41;;;5.43;100.00
22550;BME280;11441;57.164;-2.120;2023-03-13T06:30:11;96553.38;;;5.43;100.00
22550;BME280;11441;57.164;-2.120;2023-03-13T06:32:38;96562.81;;;5.39;100.00
22550;BME280;11441;57.164;-2.120;2023-03-13T06:35:06;96602.84;;;5.45;100.00
22550;BME280;11441;57.164;-2.120;2023-03-13T06:37:33;96606.13;;;5.57;100.00
22550;BME280;11441;57.164;-2.120;2023-03-13T06:39:59;96607.75;;;5.54;100.00
22550;BME280;11441;57.164;-2.120;2023-03-13T06:42:26;96626.56;;;5.69;100.00
22550;BME280;11441;57.164;-2.120;2023-03-13T06:44:53;96644.34;;;5.77;100.00
22550;BME280;11441;57.164;-2.120;2023-03-13T06:47:20;96643.19;;;5.74;100.00
22550;BME280;11441;57.164;-2.120;2023-03-13T06:49:46;96634.66;;;5.72;100.00
22550;BME280;11441;57.164;-2.120;2023-03-13T06:52:13;96625.06;;;5.64;100.00
22550;BME280;11441;57.164;-2.120;2023-03-13T06:54:40;96621.78;;;5.73;100.00
22550;BME280;11441;57.164;-2.120;2023-03-13T06:57:07;96615.63;;;5.69;100.00
22550;BME280;11441;57.164;-2.120;2023-03-13T06:59:34;96620.44;;;5.81;100.00
22550;BME280;11441;57.164;-2.120;2023-03-13T07:02:01;96611.34;;;5.67;100.00
22550;BME280;11441;57.164;-2.120;2023-03-13T07:04:28;96608.84;;;5.77;100.00
22550;BME280;11441;57.164;-2.120;2023-03-13T07:06:55;96607.03;;;5.70;100.00
22550;BME280;11441;57.164;-2.120;2023-03-13T07:09:21;96598.56;;;5.64;100.00
22550;BME280;11441;57.164;-2.120;2023-03-13T07:11:48;96590.22;;;5.72;100.00
22550;BME280;11441;57.164;-2.120;2023-03-13T07:14:15;96590.72;;;5.66;100.00
22550;BME280;11441;57.164;-2.120;2023-03-13T07:16:44;96596.03;;;5.74;100.00
22550;BME280;11441;57.164;-2.120;2023-03-13T07:19:12;96587.41;;;5.75;100.00
22550;BME280;11441;57.164;-2.120;2023-03-13T07:21:39;96590.34;;;5.84;100.00
22550;BME280;11441;57.164;-2.120;2023-03-13T07:24:06;96581.88;;;5.79;100.00
22550;BME280;11441;57.164;-2.120;2023-03-13T07:26:33;96583.47;;;5.96;100.00
22550;BME280;11441;57.164;-2.120;2023-03-13T07:29:00;96585.38;;;5.99;100.00
22550;BME280;11441;57.164;-2.120;2023-03-13T07:31:27;96587.69;;;6.01;100.00
22550;BME280;11441;57.164;-2.120;2023-03-13T07:33:55;96585.78;;;5.98;100.00
22550;BME280;11441;57.164;-2.120;2023-03-13T07:36:23;96588.88;;;6.00;100.00
22550;BME280;11441;57.164;-2.120;2023-03-13T07:38:51;96579.91;;;5.99;100.00
22550;BME280;11441;57.164;-2.120;2023-03-13T07:41:37;96584.94;;;6.01;100.00
22550;BME280;11441;57.164;-2.120;2023-03-13T07:44:05;96581.56;;;5.93;100.00
22550;BME280;11441;57.164;-2.120;2023-03-13T07:46:32;96583.41;;;6.00;100.00
22550;BME280;11441;57.164;-2.120;2023-03-13T07:48:59;96580.75;;;5.96;100.00
22550;BME280;11441;57.164;-2.120;2023-03-13T07:51:26;96574.44;;;5.99;100.00
22550;BME280;11441;57.164;-2.120;2023-03-13T07:54:09;96576.09;;;5.93;100.00
22550;BME280;11441;57.164;-2.120;2023-03-13T07:56:36;96575.28;;;5.96;100.00
22550;BME280;11441;57.164;-2.120;2023-03-13T07:59:02;96580.97;;;5.85;100.00
22550;BME280;11441;57.164;-2.120;2023-03-13T08:01:29;96581.91;;;5.95;100.00
22550;BME280;11441;57.164;-2.120;2023-03-13T08:03:57;96585.97;;;6.07;100.00
22550;BME280;11441;57.164;-2.120;2023-03-13T08:06:29;96580.34;;;5.98;100.00
22550;BME280;11441;57.164;-2.120;2023-03-13T08:08:59;96581.22;;;5.91;100.00
22550;BME280;11441;57.164;-2.120;2023-03-13T08:11:27;96584.44;;;5.86;100.00
22550;BME280;11441;57.164;-2.120;2023-03-13T08:13:55;96570.88;;;5.82;100.00
22550;BME280;11441;57.164;-2.120;2023-03-13T08:16:27;96578.41;;;5.95;100.00
22550;BME280;11441;57.164;-2.120;2023-03-13T08:18:56;96571.72;;;5.79;100.00
22550;BME280;11441;57.164;-2.120;2023-03-13T08:21:26;96578.81;;;5.77;100.00
22550;BME280;11441;57.164;-2.120;2023-03-13T08:23:55;96572.94;;;5.78;100.00
22550;BME280;11441;57.164;-2.120;2023-03-13T08:26:25;96573.34;;;5.77;100.00
22550;BME280;11441;57.164;-2.120;2023-03-13T08:28:58;96574.63;;;5.89;100.00
22550;BME280;11441;57.164;-2.120;2023-03-13T08:31:28;96577.38;;;5.89;100.00
22550;BME280;11441;57.164;-2.120;2023-03-13T08:33:55;96586.91;;;5.80;100.00
22550;BME280;11441;57.164;-2.120;2023-03-13T08:36:35;96596.25;;;5.63;100.00
22550;BME280;11441;57.164;-2.120;2023-03-13T08:39:05;96584.41;;;5.70;100.00
22550;BME280;11441;57.164;-2.120;2023-03-13T08:41:34;96588.91;;;5.60;100.00
22550;BME280;11441;57.164;-2.120;2023-03-13T08:44:06;96594.16;;;5.51;100.00
22550;BME280;11441;57.164;-2.120;2023-03-13T08:46:34;96607.09;;;5.46;100.00
22550;BME280;11441;57.164;-2.120;2023-03-13T08:49:03;96606.00;;;5.44;100.00
22550;BME280;11441;57.164;-2.120;2023-03-13T08:51:30;96598.69;;;5.37;100.00
22550;BME280;11441;57.164;-2.120;2023-03-13T08:53:57;96599.47;;;5.38;100.00
22550;BME280;11441;57.164;-2.120;2023-03-13T08:56:26;96606.06;;;5.40;100.00
22550;BME280;11441;57.164;-2.120;2023-03-13T08:58:56;96602.81;;;5.25;100.00
22550;BME280;11441;57.164;-2.120;2023-03-13T09:01:25;96599.81;;;5.20;100.00
22550;BME280;11441;57.164;-2.120;2023-03-13T09:03:52;96604.50;;;5.19;100.00
22550;BME280;11441;57.164;-2.120;2023-03-13T09:06:19;96613.94;;;5.15;100.00
22550;BME280;11441;57.164;-2.120;2023-03-13T09:08:46;96615.91;;;5.14;100.00
22550;BME280;11441;57.164;-2.120;2023-03-13T09:11:18;96621.34;;;5.14;100.00
22550;BME280;11441;57.164;-2.120;2023-03-13T09:13:47;96611.81;;;5.02;100.00
22550;BME280;11441;57.164;-2.120;2023-03-13T09:16:20;96617.34;;;4.99;100.00
22550;BME280;11441;57.164;-2.120;2023-03-13T09:18:48;96637.44;;;4.85;100.00
22550;BME280;11441;57.164;-2.120;2023-03-13T09:21:17;96634.44;;;4.79;100.00
22550;BME280;11441;57.164;-2.120;2023-03-13T09:23:45;96634.84;;;4.78;100.00
22550;BME280;11441;57.164;-2.120;2023-03-13T09:26:31;96644.66;;;4.71;100.00
22550;BME280;11441;57.164;-2.120;2023-03-13T09:28:58;96659.69;;;4.56;100.00
22550;BME280;11441;57.164;-2.120;2023-03-13T09:31:28;96649.88;;;4.62;100.00
22550;BME280;11441;57.164;-2.120;2023-03-13T09:33:56;96658.56;;;4.53;100.00
22550;BME280;11441;57.164;-2.120;2023-03-13T09:36:24;96667.09;;;4.56;100.00
22550;BME280;11441;57.164;-2.120;2023-03-13T09:38:57;96669.53;;;4.50;100.00
22550;BME280;11441;57.164;-2.120;2023-03-13T09:46:40;96709.31;;;4.17;100.00
22550;BME280;11441;57.164;-2.120;2023-03-13T09:51:47;96704.31;;;4.39;100.00
22550;BME280;11441;57.164;-2.120;2023-03-13T09:54:26;96724.84;;;4.16;100.00
22550;BME280;11441;57.164;-2.120;2023-03-13T10:02:35;96718.41;;;4.03;100.00
22550;BME280;11441;57.164;-2.120;2023-03-13T10:05:26;96740.84;;;3.80;100.00
22550;BME280;11441;57.164;-2.120;2023-03-13T10:08:14;96737.63;;;3.88;100.00
22550;BME280;11441;57.164;-2.120;2023-03-13T10:11:08;96739.66;;;3.81;100.00
22550;BME280;11441;57.164;-2.120;2023-03-13T10:13:50;96740.03;;;3.83;100.00
22550;BME280;11441;57.164;-2.120;2023-03-13T10:16:38;96757.25;;;3.72;100.00
22550;BME280;11441;57.164;-2.120;2023-03-13T10:19:34;96757.28;;;3.69;100.00
22550;BME280;11441;57.164;-2.120;2023-03-13T10:22:22;96754.47;;;3.76;100.00
22550;BME280;11441;57.164;-2.120;2023-03-13T10:25:02;96784.47;;;3.72;100.00
22550;BME280;11441;57.164;-2.120;2023-03-13T10:27:30;96771.84;;;3.51;100.00
22550;BME280;11441;57.164;-2.120;2023-03-13T10:29:57;96773.97;;;3.71;100.00
22550;BME280;11441;57.164;-2.120;2023-03-13T10:32:23;96793.06;;;3.67;100.00
22550;BME280;11441;57.164;-2.120;2023-03-13T10:34:52;96786.75;;;3.77;100.00
22550;BME280;11441;57.164;-2.120;2023-03-13T10:37:22;96787.97;;;3.73;100.00
22550;BME280;11441;57.164;-2.120;2023-03-13T10:39:49;96801.88;;;3.82;100.00
22550;BME280;11441;57.164;-2.120;2023-03-13T10:42:31;96793.47;;;3.66;100.00
22550;BME280;11441;57.164;-2.120;2023-03-13T10:45:19;96798.03;;;3.76;100.00
22550;BME280;11441;57.164;-2.120;2023-03-13T10:47:54;96809.28;;;3.82;100.00
22550;BME280;11441;57.164;-2.120;2023-03-13T10:50:24;96813.25;;;3.70;100.00
22550;BME280;11441;57.164;-2.120;2023-03-13T10:52:51;96821.00;;;3.75;100.00
22550;BME280;11441;57.164;-2.120;2023-03-13T10:55:23;96815.50;;;3.78;100.00
22550;BME280;11441;57.164;-2.120;2023-03-13T10:57:59;96821.78;;;3.72;100.00
22550;BME280;11441;57.164;-2.120;2023-03-13T11:03:01;96844.69;;;3.78;100.00
22550;BME280;11441;57.164;-2.120;2023-03-13T11:05:39;96840.81;;;3.75;100.00
22550;BME280;11441;57.164;-2.120;2023-03-13T11:08:35;96842.41;;;3.73;100.00
22550;BME280;11441;57.164;-2.120;2023-03-13T11:11:16;96838.97;;;3.65;100.00
22550;BME280;11441;57.164;-2.120;2023-03-13T11:13:45;96847.09;;;3.69;100.00
22550;BME280;11441;57.164;-2.120;2023-03-13T11:16:19;96857.19;;;3.72;100.00
22550;BME280;11441;57.164;-2.120;2023-03-13T11:30:03;96895.06;;;3.97;100.00
22550;BME280;11441;57.164;-2.120;2023-03-13T11:32:51;96894.66;;;3.99;100.00
22550;BME280;11441;57.164;-2.120;2023-03-13T11:35:45;96896.88;;;4.11;100.00
22550;BME280;11441;57.164;-2.120;2023-03-13T11:38:46;96928.13;;;3.99;100.00
22550;BME280;11441;57.164;-2.120;2023-03-13T11:44:18;96936.78;;;3.87;100.00
22550;BME280;11441;57.164;-2.120;2023-03-13T11:53:03;96949.09;;;3.99;100.00
22550;BME280;11441;57.164;-2.120;2023-03-13T12:01:24;96948.97;;;4.17;100.00
22550;BME280;11441;57.164;-2.120;2023-03-13T12:04:03;96959.16;;;4.05;100.00
22550;BME280;11441;57.164;-2.120;2023-03-13T12:06:39;96948.47;;;4.29;100.00
22550;BME280;11441;57.164;-2.120;2023-03-13T12:09:15;96949.78;;;4.13;100.00
22550;BME280;11441;57.164;-2.120;2023-03-13T12:12:09;96968.72;;;4.24;100.00
22550;BME280;11441;57.164;-2.120;2023-03-13T12:14:45;96970.44;;;4.07;100.00
22550;BME280;11441;57.164;-2.120;2023-03-13T12:17:20;96968.34;;;4.26;100.00
22550;BME280;11441;57.164;-2.120;2023-03-13T12:20:05;96978.53;;;4.18;100.00
22550;BME280;11441;57.164;-2.120;2023-03-13T12:25:53;96988.28;;;4.12;100.00
22550;BME280;11441;57.164;-2.120;2023-03-13T12:37:24;96997.84;;;4.34;100.00
22550;BME280;11441;57.164;-2.120;2023-03-13T12:40:30;97009.06;;;4.40;100.00
22550;BME280;11441;57.164;-2.120;2023-03-13T12:43:09;97002.31;;;4.56;100.00
22550;BME280;11441;57.164;-2.120;2023-03-13T12:45:46;97009.03;;;4.44;100.00
22550;BME280;11441;57.164;-2.120;2023-03-13T12:48:31;97007.34;;;4.57;100.00
22550;BME280;11441;57.164;-2.120;2023-03-13T12:59:59;97029.88;;;4.61;100.00
22550;BME280;11441;57.164;-2.120;2023-03-13T13:02:31;97047.94;;;4.48;100.00
22550;BME280;11441;57.164;-2.120;2023-03-13T13:05:00;97044.72;;;4.60;100.00
22550;BME280;11441;57.164;-2.120;2023-03-13T13:07:34;97054.22;;;4.83;100.00
22550;BME280;11441;57.164;-2.120;2023-03-13T13:10:22;97040.81;;;4.58;100.00
22550;BME280;11441;57.164;-2.120;2023-03-13T13:16:06;97064.59;;;4.57;100.00
22550;BME280;11441;57.164;-2.120;2023-03-13T13:18:37;97067.44;;;4.43;100.00
22550;BME280;11441;57.164;-2.120;2023-03-13T13:21:23;97068.97;;;4.44;100.00
22550;BME280;11441;57.164;-2.120;2023-03-13T13:23:52;97077.75;;;4.66;100.00
22550;BME280;11441;57.164;-2.120;2023-03-13T13:37:23;97086.97;;;4.34;100.00
22550;BME280;11441;57.164;-2.120;2023-03-13T13:39:52;97097.56;;;4.21;100.00
22550;BME280;11441;57.164;-2.120;2023-03-13T13:45:23;97091.75;;;4.15;100.00
22550;BME280;11441;57.164;-2.120;2023-03-13T13:48:45;97115.22;;;3.95;100.00
22550;BME280;11441;57.164;-2.120;2023-03-13T13:53:52;97133.53;;;3.91;100.00
22550;BME280;11441;57.164;-2.120;2023-03-13T13:59:03;97134.22;;;4.06;100.00
22550;BME280;11441;57.164;-2.120;2023-03-13T14:01:32;97141.66;;;3.98;100.00
22550;BME280;11441;57.164;-2.120;2023-03-13T14:04:29;97140.81;;;4.12;100.00
22550;BME280;11441;57.164;-2.120;2023-03-13T14:07:01;97159.56;;;3.99;100.00
22550;BME280;11441;57.164;-2.120;2023-03-13T14:12:35;97174.97;;;4.27;100.00
22550;BME280;11441;57.164;-2.120;2023-03-13T14:17:50;97183.66;;;4.04;100.00
22550;BME280;11441;57.164;-2.120;2023-03-13T14:23:06;97190.97;;;4.22;100.00
22550;BME280;11441;57.164;-2.120;2023-03-13T14:25:47;97192.06;;;4.31;100.00
22550;BME280;11441;57.164;-2.120;2023-03-13T14:28:27;97227.22;;;4.04;100.00
22550;BME280;11441;57.164;-2.120;2023-03-13T14:30:56;97221.28;;;4.27;100.00
22550;BME280;11441;57.164;-2.120;2023-03-13T14:33:25;97222.47;;;4.19;100.00
22550;BME280;11441;57.164;-2.120;2023-03-13T14:35:55;97249.66;;;4.33;100.00
22550;BME280;11441;57.164;-2.120;2023-03-13T14:38:26;97236.13;;;4.15;100.00
22550;BME280;11441;57.164;-2.120;2023-03-13T14:40:55;97242.69;;;4.25;100.00
22550;BME280;11441;57.164;-2.120;2023-03-13T14:45:59;97276.19;;;4.19;100.00
22550;BME280;11441;57.164;-2.120;2023-03-13T14:48:31;97272.69;;;4.18;100.00
22550;BME280;11441;57.164;-2.120;2023-03-13T14:51:14;97290.25;;;4.03;100.00
22550;BME280;11441;57.164;-2.120;2023-03-13T14:53:56;97303.91;;;3.81;100.00
22550;BME280;11441;57.164;-2.120;2023-03-13T14:56:39;97304.72;;;3.78;100.00
22550;BME280;11441;57.164;-2.120;2023-03-13T14:59:15;97316.38;;;3.82;100.00
22550;BME280;11441;57.164;-2.120;2023-03-13T15:01:43;97327.66;;;3.73;100.00
22550;BME280;11441;57.164;-2.120;2023-03-13T15:04:10;97333.13;;;3.55;100.00
22550;BME280;11441;57.164;-2.120;2023-03-13T15:06:37;97376.63;;;3.48;100.00
22550;BME280;11441;57.164;-2.120;2023-03-13T15:09:41;97376.25;;;3.21;100.00
22550;BME280;11441;57.164;-2.120;2023-03-13T15:12:13;97375.03;;;2.97;100.00